createdAt,value
2023-01-30T00:04:24.809Z,98669.31
2023-01-30T00:09:27.256Z,98651.34
2023-01-30T00:14:29.962Z,98633.78
2023-01-30T00:19:32.604Z,98616.00
2023-01-30T00:24:35.127Z,98618.78
2023-01-30T00:29:37.587Z,98628.34
2023-01-30T00:34:40.197Z,98623.25
2023-01-30T00:39:44.055Z,98602.53
2023-01-30T00:45:05.387Z,98595.72
2023-01-30T00:50:08.672Z,98613.22
2023-01-30T00:55:11.585Z,98625.88
2023-01-30T01:00:14.598Z,98640.16
2023-01-30T01:05:17.337Z,98659.69
2023-01-30T01:10:20.448Z,98686.81
2023-01-30T01:15:24.684Z,98693.13
2023-01-30T01:20:27.144Z,98685.47
2023-01-30T01:25:30.041Z,98683.31
2023-01-30T01:30:32.806Z,98706.88
2023-01-30T01:35:35.229Z,98713.72
2023-01-30T01:40:56.280Z,98705.78
2023-01-30T01:46:18.256Z,98685.22
2023-01-30T01:51:37.203Z,98680.25
2023-01-30T01:56:43.959Z,98686.34
2023-01-30T02:01:47.763Z,98665.84
2023-01-30T02:06:50.384Z,98697.22
2023-01-30T02:11:59.436Z,98696.72
2023-01-30T02:17:02.224Z,98690.97
2023-01-30T02:22:33.015Z,98674.84
2023-01-30T02:27:59.645Z,98671.81
2023-01-30T02:33:13.231Z,98644.13
2023-01-30T02:38:30.933Z,98664.28
2023-01-30T02:43:46.135Z,98669.00
2023-01-30T02:48:59.299Z,98608.97
2023-01-30T02:54:02.366Z,98655.47
2023-01-30T02:59:08.649Z,98632.31
2023-01-30T03:04:32.441Z,98630.22
2023-01-30T03:10:14.896Z,98590.03
2023-01-30T03:15:36.405Z,98573.56
2023-01-30T03:20:41.124Z,98560.94
2023-01-30T03:25:46.180Z,98522.56
2023-01-30T03:30:49.166Z,98484.19
2023-01-30T03:35:52.637Z,98467.69
2023-01-30T03:40:55.144Z,98484.59
2023-01-30T03:45:57.925Z,98474.63
2023-01-30T03:51:00.603Z,98466.38
2023-01-30T03:56:03.205Z,98483.72
2023-01-30T04:01:08.298Z,98507.09
2023-01-30T04:06:11.092Z,98502.88
2023-01-30T04:11:13.564Z,98501.44
2023-01-30T04:16:18.653Z,98496.97
2023-01-30T04:21:50.115Z,98503.28
2023-01-30T04:26:52.637Z,98498.13
2023-01-30T04:31:55.206Z,98498.75
2023-01-30T04:37:01.652Z,98492.00
2023-01-30T04:42:05.217Z,98489.19
2023-01-30T04:47:15.128Z,98494.09
2023-01-30T04:52:17.645Z,98489.53
2023-01-30T04:57:20.049Z,98490.84
2023-01-30T05:02:23.781Z,98481.69
2023-01-30T05:07:26.568Z,98475.56
2023-01-30T05:12:29.209Z,98467.41
2023-01-30T05:17:32.569Z,98466.28
2023-01-30T05:22:35.137Z,98444.47
2023-01-30T05:27:37.728Z,98441.34
2023-01-30T05:32:40.187Z,98435.63
2023-01-30T05:37:42.681Z,98425.91
2023-01-30T05:42:45.236Z,98429.94
2023-01-30T05:47:54.835Z,98422.69
2023-01-30T05:52:58.979Z,98431.06
2023-01-30T05:58:01.690Z,98438.06
2023-01-30T06:03:04.276Z,98442.72
2023-01-30T06:08:08.126Z,98437.38
2023-01-30T06:13:11.270Z,98444.94
2023-01-30T06:18:13.945Z,98439.88
2023-01-30T06:23:16.849Z,98436.59
2023-01-30T06:28:20.218Z,98439.59
2023-01-30T06:33:22.705Z,98425.91
2023-01-30T06:38:26.164Z,98417.72
2023-01-30T06:43:28.739Z,98412.56
2023-01-30T06:48:31.293Z,98406.59
2023-01-30T06:53:33.981Z,98399.78
2023-01-30T06:58:36.603Z,98382.78
2023-01-30T07:03:42.358Z,98394.69
2023-01-30T07:08:44.724Z,98412.38
2023-01-30T07:13:47.417Z,98416.16
2023-01-30T07:18:49.837Z,98438.00
2023-01-30T07:23:52.793Z,98441.84
2023-01-30T07:28:55.194Z,98440.31
2023-01-30T07:33:57.629Z,98460.22
2023-01-30T07:39:01.879Z,98439.44
2023-01-30T07:44:04.492Z,98467.19
2023-01-30T07:49:09.141Z,98473.91
2023-01-30T07:54:11.790Z,98479.63
2023-01-30T07:59:14.240Z,98464.69
2023-01-30T08:04:16.764Z,98451.66
2023-01-30T08:09:19.190Z,98457.16
2023-01-30T08:14:21.987Z,98472.91
2023-01-30T08:19:24.703Z,98491.22
2023-01-30T08:24:27.439Z,98487.06
2023-01-30T08:29:29.943Z,98472.31
2023-01-30T08:34:32.948Z,98453.47
2023-01-30T08:39:38.304Z,98425.28
2023-01-30T08:44:40.915Z,98432.13
2023-01-30T08:49:43.353Z,98403.69
2023-01-30T08:54:45.873Z,98407.44
2023-01-30T08:59:51.313Z,98410.66
2023-01-30T09:04:53.888Z,98380.03
2023-01-30T09:09:56.353Z,98358.63
2023-01-30T09:15:00.671Z,98352.41
2023-01-30T09:20:03.925Z,98353.03
2023-01-30T09:25:07.061Z,98365.44
2023-01-30T09:30:10.312Z,98367.72
2023-01-30T09:35:12.831Z,98353.63
2023-01-30T09:40:18.903Z,98359.59
2023-01-30T09:45:49.366Z,98362.06
2023-01-30T09:51:21.371Z,98344.88
2023-01-30T09:56:24.197Z,98342.75
2023-01-30T10:01:46.253Z,98325.84
2023-01-30T10:07:10.377Z,98330.59
2023-01-30T10:12:44.118Z,98325.47
2023-01-30T10:18:13.467Z,98288.41
2023-01-30T10:23:26.675Z,98298.06
2023-01-30T10:28:38.685Z,98270.53
2023-01-30T10:33:55.493Z,98282.88
2023-01-30T10:39:01.644Z,98289.47
2023-01-30T10:44:13.231Z,98285.66
2023-01-30T10:50:11.114Z,98283.19
2023-01-30T10:55:38.071Z,98277.97
2023-01-30T11:00:51.116Z,98287.75
2023-01-30T11:05:59.874Z,98297.66
2023-01-30T11:11:21.784Z,98287.03
2023-01-30T11:16:24.603Z,98303.22
2023-01-30T11:21:42.333Z,98298.84
2023-01-30T11:26:48.372Z,98292.09
2023-01-30T11:31:52.319Z,98284.84
2023-01-30T11:37:12.037Z,98293.47
2023-01-30T11:42:14.569Z,98300.19
2023-01-30T11:47:26.031Z,98311.38
2023-01-30T11:52:35.125Z,98313.50
2023-01-30T11:57:50.913Z,98304.53
2023-01-30T12:02:56.737Z,98308.47
2023-01-30T12:08:24.721Z,98295.16
2023-01-30T12:13:47.295Z,98282.59
2023-01-30T12:19:04.885Z,98293.94
2023-01-30T12:24:13.500Z,98285.13
2023-01-30T12:29:36.120Z,98283.44
2023-01-30T12:34:38.775Z,98286.59
2023-01-30T12:40:10.471Z,98283.63
2023-01-30T12:45:21.516Z,98282.75
2023-01-30T12:50:42.423Z,98298.72
2023-01-30T12:55:59.432Z,98324.78
2023-01-30T13:01:25.328Z,98322.72
2023-01-30T13:06:39.812Z,98330.59
2023-01-30T13:11:42.170Z,98313.16
2023-01-30T13:17:14.682Z,98309.06
2023-01-30T13:22:28.114Z,98318.34
2023-01-30T13:27:35.818Z,98314.38
2023-01-30T13:32:43.474Z,98318.59
2023-01-30T13:37:49.047Z,98316.63
2023-01-30T13:42:57.621Z,98345.16
2023-01-30T13:48:15.147Z,98340.81
2023-01-30T13:53:33.146Z,98349.41
2023-01-30T13:58:44.596Z,98353.31
2023-01-30T14:03:47.219Z,98381.38
2023-01-30T14:08:55.103Z,98381.53
2023-01-30T14:14:15.426Z,98373.19
2023-01-30T14:19:33.347Z,98374.47
2023-01-30T14:24:35.908Z,98377.44
2023-01-30T14:29:38.229Z,98387.09
2023-01-30T14:34:40.683Z,98384.41
2023-01-30T14:39:53.480Z,98397.19
2023-01-30T14:45:00.367Z,98406.56
2023-01-30T14:50:03.327Z,98406.50
2023-01-30T14:55:15.654Z,98419.19
2023-01-30T15:00:21.076Z,98408.69
2023-01-30T15:05:42.313Z,98423.09
2023-01-30T15:10:54.135Z,98428.94
2023-01-30T15:16:23.719Z,98451.03
2023-01-30T15:21:56.931Z,98465.03
2023-01-30T15:27:36.797Z,98468.00
2023-01-30T15:32:39.406Z,98476.69
2023-01-30T15:37:48.266Z,98457.66
2023-01-30T15:43:02.869Z,98460.13
2023-01-30T15:48:14.823Z,98471.16
2023-01-30T15:53:17.970Z,98488.09
2023-01-30T15:58:22.768Z,98466.31
2023-01-30T16:03:32.193Z,98470.53
2023-01-30T16:08:37.072Z,98470.31
2023-01-30T16:13:39.843Z,98480.69
2023-01-30T16:19:04.681Z,98483.69
2023-01-30T16:24:27.912Z,98500.00
2023-01-30T16:29:33.724Z,98489.75
2023-01-30T16:34:39.913Z,98501.50
2023-01-30T16:39:42.560Z,98523.06
2023-01-30T16:44:45.057Z,98529.47
2023-01-30T16:49:49.524Z,98537.31
2023-01-30T16:55:02.638Z,98544.88
2023-01-30T17:00:20.119Z,98552.19
2023-01-30T17:05:34.348Z,98565.22
2023-01-30T17:10:55.673Z,98561.41
2023-01-30T17:16:16.759Z,98562.13
2023-01-30T17:21:20.886Z,98583.47
2023-01-30T17:26:23.860Z,98575.50
2023-01-30T17:31:27.191Z,98593.16
2023-01-30T17:36:31.105Z,98597.94
2023-01-30T17:41:36.947Z,98617.06
2023-01-30T17:46:41.221Z,98613.41
2023-01-30T17:51:44.561Z,98624.13
2023-01-30T17:56:50.347Z,98636.44
2023-01-30T18:01:53.525Z,98638.47
2023-01-30T18:07:09.697Z,98646.13
2023-01-30T18:12:12.342Z,98645.78
2023-01-30T18:17:14.861Z,98642.31
2023-01-30T18:22:17.379Z,98659.28
2023-01-30T18:27:19.893Z,98675.41
2023-01-30T18:32:22.338Z,98684.97
2023-01-30T18:37:25.495Z,98702.63
2023-01-30T18:42:28.047Z,98696.34
2023-01-30T18:47:30.751Z,98717.16
2023-01-30T18:52:33.539Z,98718.38
2023-01-30T18:57:36.166Z,98727.34
2023-01-30T19:02:38.769Z,98733.56
2023-01-30T19:07:41.404Z,98735.16
2023-01-30T19:13:17.694Z,98730.25
2023-01-30T19:18:20.419Z,98740.13
2023-01-30T19:23:31.015Z,98756.06
2023-01-30T19:28:33.699Z,98769.13
2023-01-30T19:33:36.804Z,98770.66
2023-01-30T19:38:40.269Z,98774.09
2023-01-30T19:43:43.175Z,98784.47
2023-01-30T19:48:47.271Z,98771.00
2023-01-30T19:53:54.285Z,98774.19
2023-01-30T19:58:58.764Z,98772.81
2023-01-30T20:04:02.714Z,98775.00
2023-01-30T20:09:09.693Z,98791.59
2023-01-30T20:14:12.541Z,98798.22
2023-01-30T20:19:16.969Z,98798.22
2023-01-30T20:24:19.571Z,98807.59
2023-01-30T20:29:22.020Z,98827.03
2023-01-30T20:34:25.041Z,98837.75
2023-01-30T20:39:27.595Z,98825.72
2023-01-30T20:44:30.161Z,98829.34
2023-01-30T20:49:33.113Z,98828.00
2023-01-30T20:54:35.902Z,98840.25
2023-01-30T20:59:38.917Z,98847.44
2023-01-30T21:04:41.586Z,98842.66
2023-01-30T21:09:44.125Z,98847.84
2023-01-30T21:14:46.740Z,98849.44
2023-01-30T21:19:49.191Z,98857.31
2023-01-30T21:24:51.720Z,98858.31
2023-01-30T21:29:54.281Z,98868.38
2023-01-30T21:34:56.730Z,98870.66
2023-01-30T21:40:17.826Z,98878.13
2023-01-30T21:45:21.202Z,98886.66
2023-01-30T21:50:24.088Z,98879.47
2023-01-30T21:55:26.504Z,98893.69
2023-01-30T22:00:28.984Z,98896.00
2023-01-30T22:05:36.508Z,98888.25
2023-01-30T22:10:39.282Z,98893.38
2023-01-30T22:15:41.756Z,98894.78
2023-01-30T22:20:44.407Z,98892.03
2023-01-30T22:25:54.651Z,98900.03
2023-01-30T22:31:08.566Z,98897.69
2023-01-30T22:36:11.358Z,98896.63
2023-01-30T22:41:18.469Z,98880.38
2023-01-30T22:46:22.341Z,98891.13
2023-01-30T22:51:37.085Z,98894.66
2023-01-30T22:56:45.066Z,98902.03
2023-01-30T23:01:50.778Z,98905.25
2023-01-30T23:06:53.231Z,98906.19
2023-01-30T23:12:15.770Z,98917.38
2023-01-30T23:17:36.981Z,98908.09
2023-01-30T23:22:39.455Z,98907.53
2023-01-30T23:27:41.899Z,98918.72
2023-01-30T23:32:44.304Z,98899.59
2023-01-30T23:38:05.021Z,98899.25
2023-01-30T23:43:07.646Z,98904.91
2023-01-30T23:48:10.381Z,98901.59
2023-01-30T23:53:12.774Z,98907.53
2023-01-30T23:58:15.251Z,98901.44
